West Rock, Minnesota
Current Conditions -  °F | °C
As of 2:55 PM on Sunday 21 Dec 2014 (Local Time) from KROS Reporting Station
Light Rain Light Rain  
Wind Chill: 29°   Ceiling: 700
Heat Index: 33°   Visibility: 10mi
Dew Point: 32°   Wind: 5mph
Humidity: 96%   Direction: 160°SSE
Pressure: 29.75"   Gusts: NA
Location:  45.8356°N, 92.9649°W
Report Text: KROS 212055Z AUTO 16004KT 10SM -RA OVC007 01/00 A2975 RMK AO2 T00060000
Loading
Personal Weather Stations






























Interactive Weather Map New forecast layout! Learn more

10-Day Weather Forecast

Advertisements
Track Severe Weather on mobile